F/V Jocka — WDG5937 — position and weather

sailwx.info

Track history (hours):
 
Tides and Currents Weather Stations Pressure Air Temp Water Temp Dewpoint Dewpoint Depression Visibility Wind Speed Wind Dir Waves Ship Positions

F/V Jocka

Owner: F/V Jocka, Harpswell, ME. More information available from US FCC via Universal Licensing System and Coast Guard Vessel Documentation Center.

Last reported at 2018-Jun-18 20:27 UTC. Time now 2018-Jun-20 04:01 UTC.
Position N 40°30' W 073°29'.

Length 19 m.

Type: Ship. MMSI: 367551860.

Date/timePositionNaut miles runAvg speedWind from/ knotsBaromVisibWave heightAir tempDewpointWater temp
2018-Jun-18 20:27N 40°30' W 073°29'5 0.6
2018-Jun-18 12:11N 40°32' W 073°34'0 1.0
2018-Jun-18 11:54N 40°32' W 073°35'1 1.8
2018-Jun-18 11:29N 40°31' W 073°35'0 0.3
2018-Jun-18 11:00N 40°31' W 073°35'4 2.8
2018-Jun-18 09:33N 40°30' W 073°30'0 3.2
2018-Jun-18 09:28N 40°30' W 073°30'2 3.1
2018-Jun-18 08:47N 40°31' W 073°27'1 2.1
2018-Jun-18 08:27N 40°31' W 073°26'8 0.2
2018-Jun-16 09:04N 40°31' W 073°36'168 4.5
2018-Jun-14 19:50N 42°15' W 070°41'3 7.7
2018-Jun-14 19:31N 42°17' W 070°43'4 8.3
2018-Jun-14 19:00N 42°18' W 070°49'4 8.4
2018-Jun-14 18:31N 42°19' W 070°54'4 8.0
2018-Jun-14 18:00N 42°20' W 070°60'2 4.6
2018-Jun-14 17:30N 42°21' W 071°02'0 0.0
2018-Jun-14 17:00N 42°21' W 071°02'0 0.0
2018-Jun-14 16:31N 42°21' W 071°02'0 0.0
2018-Jun-14 16:00N 42°21' W 071°02'0 0.0
2018-Jun-14 15:30N 42°21' W 071°02'0 0.0
2018-Jun-14 15:00N 42°21' W 071°02'0 0.1
2018-Jun-14 14:30N 42°21' W 071°02'0 0.0
2018-Jun-14 14:01N 42°21' W 071°02'0 0.0
2018-Jun-14 13:30N 42°21' W 071°02'0 0.0
2018-Jun-14 13:01N 42°21' W 071°02'0 0.0
2018-Jun-14 12:30N 42°21' W 071°02'0 0.0
2018-Jun-14 12:00N 42°21' W 071°02'0 0.0
2018-Jun-14 11:30N 42°21' W 071°02'0 0.0
2018-Jun-14 11:01N 42°21' W 071°02'0 0.0
2018-Jun-14 10:30N 42°21' W 071°02'0 0.0
2018-Jun-14 10:01N 42°21' W 071°02'0 0.0
2018-Jun-14 09:30N 42°21' W 071°02'0 0.0
2018-Jun-14 09:00N 42°21' W 071°02'0 0.0
2018-Jun-14 08:30N 42°21' W 071°02'0 0.0
2018-Jun-14 08:00N 42°21' W 071°02'0 0.0
2018-Jun-14 07:30N 42°21' W 071°02'0 0.0
2018-Jun-14 07:00N 42°21' W 071°02'0 0.0
2018-Jun-14 06:31N 42°21' W 071°02'0 0.0
2018-Jun-14 06:00N 42°21' W 071°02'0 0.0
2018-Jun-14 05:31N 42°21' W 071°02'0 0.0
2018-Jun-14 05:01N 42°21' W 071°02'0 0.0
2018-Jun-14 04:30N 42°21' W 071°02'0 0.0
2018-Jun-14 04:00N 42°21' W 071°02'0 0.0
2018-Jun-14 03:30N 42°21' W 071°02'0 0.0
2018-Jun-14 03:01N 42°21' W 071°02'0 0.0
2018-Jun-14 02:30N 42°21' W 071°02'0 0.0
2018-Jun-14 02:01N 42°21' W 071°02'0 0.0
2018-Jun-14 01:30N 42°21' W 071°02'0 0.0
2018-Jun-14 01:01N 42°21' W 071°02'0 0.0
2018-Jun-14 00:30N 42°21' W 071°02'0 0.0
2018-Jun-14 00:01N 42°21' W 071°02'0 0.0
2018-Jun-13 23:30N 42°21' W 071°02'0 0.0
2018-Jun-13 23:00N 42°21' W 071°02'0 0.0
2018-Jun-13 22:31N 42°21' W 071°02'0 0.0
2018-Jun-13 22:00N 42°21' W 071°02'0 0.0
2018-Jun-13 21:31N 42°21' W 071°02'0 0.0
2018-Jun-13 21:01N 42°21' W 071°02'0 0.0
2018-Jun-13 20:31N 42°21' W 071°02'0 0.0
2018-Jun-13 20:00N 42°21' W 071°02'0 0.0
2018-Jun-13 19:30N 42°21' W 071°02'0 0.0
2018-Jun-13 19:00N 42°21' W 071°02'0 0.0
2018-Jun-13 18:30N 42°21' W 071°02'0 0.0
2018-Jun-13 18:00N 42°21' W 071°02'0 0.0
2018-Jun-13 17:31N 42°21' W 071°02'0 0.0
2018-Jun-13 17:01N 42°21' W 071°02'0 0.0
2018-Jun-13 16:30N 42°21' W 071°02'0 0.0
2018-Jun-13 16:01N 42°21' W 071°02'0 0.0
2018-Jun-13 15:30N 42°21' W 071°02'0 0.0
2018-Jun-13 15:00N 42°21' W 071°02'0 0.0
2018-Jun-13 14:30N 42°21' W 071°02'0 0.0
2018-Jun-13 14:00N 42°21' W 071°02'0 0.0
2018-Jun-13 13:30N 42°21' W 071°02'0 0.0
2018-Jun-13 13:01N 42°21' W 071°02'0 0.0
2018-Jun-13 12:30N 42°21' W 071°02'0 0.0
2018-Jun-13 12:00N 42°21' W 071°02'0 0.0
2018-Jun-13 11:31N 42°21' W 071°02'0 0.0
2018-Jun-13 11:00N 42°21' W 071°02'0 0.0
2018-Jun-13 10:30N 42°21' W 071°02'0 0.0
2018-Jun-13 10:00N 42°21' W 071°02'0 0.0
2018-Jun-13 09:31N 42°21' W 071°02'0 0.0
2018-Jun-13 09:00N 42°21' W 071°02'0 0.0
2018-Jun-13 08:30N 42°21' W 071°02'0 0.0
2018-Jun-13 08:00N 42°21' W 071°02'0 0.0
2018-Jun-13 07:31N 42°21' W 071°02'0 0.0
2018-Jun-13 07:00N 42°21' W 071°02'0 0.0
2018-Jun-13 06:30N 42°21' W 071°02'0 0.0
2018-Jun-13 06:00N 42°21' W 071°02'0 0.0
2018-Jun-13 05:31N 42°21' W 071°02'0 0.0
2018-Jun-13 05:01N 42°21' W 071°02'0 0.0
2018-Jun-13 04:30N 42°21' W 071°02'0 0.0
2018-Jun-13 04:01N 42°21' W 071°02'0 0.0
2018-Jun-13 03:31N 42°21' W 071°02'0 0.0
2018-Jun-13 03:00N 42°21' W 071°02'0 0.0
2018-Jun-13 02:30N 42°21' W 071°02'0 0.0
2018-Jun-13 02:00N 42°21' W 071°02'0 0.0
2018-Jun-13 01:31N 42°21' W 071°02'0 0.0
2018-Jun-13 01:00N 42°21' W 071°02'0 0.0
2018-Jun-13 00:30N 42°21' W 071°02'0 0.0
2018-Jun-13 00:00N 42°21' W 071°02'0 0.0
2018-Jun-12 23:30N 42°21' W 071°02'0 0.0
2018-Jun-12 23:01N 42°21' W 071°02'0 0.0
2018-Jun-12 22:30N 42°21' W 071°02'0 0.0
2018-Jun-12 22:01N 42°21' W 071°02'0 0.0
2018-Jun-12 21:30N 42°21' W 071°02'0 0.0
2018-Jun-12 21:00N 42°21' W 071°02'0 0.0
2018-Jun-12 20:30N 42°21' W 071°02'0 0.0
2018-Jun-12 20:00N 42°21' W 071°02'0 0.0
2018-Jun-12 19:31N 42°21' W 071°02'0 0.0
2018-Jun-12 19:00N 42°21' W 071°02'0 0.0
2018-Jun-12 18:30N 42°21' W 071°02'0 0.0
2018-Jun-12 18:00N 42°21' W 071°02'0 0.0
2018-Jun-12 17:30N 42°21' W 071°02'0 0.0
2018-Jun-12 17:01N 42°21' W 071°02'0 0.0
2018-Jun-12 16:30N 42°21' W 071°02'0 0.0
2018-Jun-12 16:00N 42°21' W 071°02'0 0.0
2018-Jun-12 15:30N 42°21' W 071°02'0 0.0
2018-Jun-12 15:01N 42°21' W 071°02'0 0.0
2018-Jun-12 14:31N 42°21' W 071°02'0 0.0
2018-Jun-12 14:00N 42°21' W 071°02'0 0.0
2018-Jun-12 13:30N 42°21' W 071°02'0 0.0
2018-Jun-12 13:00N 42°21' W 071°02'0 0.0
2018-Jun-12 12:31N 42°21' W 071°02'0 0.0
2018-Jun-12 12:01N 42°21' W 071°02'0 0.0
2018-Jun-12 11:31N 42°21' W 071°02'0 0.0
2018-Jun-12 11:00N 42°21' W 071°02'0 0.0
2018-Jun-12 10:30N 42°21' W 071°02'0 0.0
2018-Jun-12 10:01N 42°21' W 071°02'0 0.0
2018-Jun-12 09:31N 42°21' W 071°02'0 0.0
2018-Jun-12 09:01N 42°21' W 071°02'0 0.0
2018-Jun-12 08:31N 42°21' W 071°02'0 0.0
2018-Jun-12 08:00N 42°21' W 071°02'0 0.0
2018-Jun-12 07:30N 42°21' W 071°02'0 0.0
2018-Jun-12 07:00N 42°21' W 071°02'0 0.0
2018-Jun-12 06:30N 42°21' W 071°02'0 0.0
2018-Jun-12 06:00N 42°21' W 071°02'0 0.0
2018-Jun-12 05:30N 42°21' W 071°02'0 0.0
2018-Jun-12 05:00N 42°21' W 071°02'0 0.0
2018-Jun-12 04:30N 42°21' W 071°02'0 0.0
2018-Jun-12 04:00N 42°21' W 071°02'0 0.0
2018-Jun-12 03:30N 42°21' W 071°02'0 0.0
2018-Jun-12 03:01N 42°21' W 071°02'0 0.0
2018-Jun-12 02:30N 42°21' W 071°02'0 0.0
2018-Jun-12 02:01N 42°21' W 071°02'0 0.0
2018-Jun-12 01:30N 42°21' W 071°02'0 0.0
2018-Jun-12 01:01N 42°21' W 071°02'0 0.0
2018-Jun-12 00:31N 42°21' W 071°02'0 0.0
2018-Jun-12 00:01N 42°21' W 071°02'0 0.0
2018-Jun-11 23:31N 42°21' W 071°02'0 0.0
2018-Jun-11 23:00N 42°21' W 071°02'0 0.0
2018-Jun-11 22:31N 42°21' W 071°02'0 0.0
2018-Jun-11 22:00N 42°21' W 071°02'0 0.0
2018-Jun-11 21:30N 42°21' W 071°02'0 0.0
2018-Jun-11 21:00N 42°21' W 071°02'0 0.0
2018-Jun-11 20:30N 42°21' W 071°02'0 0.0
2018-Jun-11 20:00N 42°21' W 071°02'0 0.0
2018-Jun-11 19:30N 42°21' W 071°02'0 0.0
2018-Jun-11 19:01N 42°21' W 071°02'0 0.0
2018-Jun-11 18:31N 42°21' W 071°02'0 0.0
2018-Jun-11 18:01N 42°21' W 071°02'0 0.0
2018-Jun-11 17:30N 42°21' W 071°02'0 0.0
2018-Jun-11 17:01N 42°21' W 071°02'0 0.0
2018-Jun-11 16:30N 42°21' W 071°02'0 0.0
2018-Jun-11 16:00N 42°21' W 071°02'0 0.0
2018-Jun-11 15:30N 42°21' W 071°02'0 0.0
2018-Jun-11 15:00N 42°21' W 071°02'0 0.0
2018-Jun-11 14:30N 42°21' W 071°02'0 0.0
2018-Jun-11 14:00N 42°21' W 071°02'0 0.0
2018-Jun-11 13:30N 42°21' W 071°02'0 0.0
2018-Jun-11 13:01N 42°21' W 071°02'0 0.0
2018-Jun-11 12:30N 42°21' W 071°02'0 0.0
2018-Jun-11 12:00N 42°21' W 071°02'0 0.0
2018-Jun-11 11:30N 42°21' W 071°02'0 0.0
2018-Jun-11 11:00N 42°21' W 071°02'0 0.0
2018-Jun-11 10:30N 42°21' W 071°02'0 0.0
2018-Jun-11 10:00N 42°21' W 071°02'0 0.0
2018-Jun-11 09:30N 42°21' W 071°02'0 0.0
2018-Jun-11 09:00N 42°21' W 071°02'0 0.0
2018-Jun-11 08:31N 42°21' W 071°02'0 0.0
2018-Jun-11 08:01N 42°21' W 071°02'0 0.0
2018-Jun-11 07:31N 42°21' W 071°02'0 0.0
2018-Jun-11 07:01N 42°21' W 071°02'0 0.0
2018-Jun-11 06:31N 42°21' W 071°02'0 0.0
2018-Jun-11 06:01N 42°21' W 071°02'0 0.0
2018-Jun-11 05:31N 42°21' W 071°02'0 0.0
2018-Jun-11 05:01N 42°21' W 071°02'0 0.0
2018-Jun-11 04:31N 42°21' W 071°02'0 0.0
2018-Jun-11 04:01N 42°21' W 071°02'0 0.0
2018-Jun-11 03:30N 42°21' W 071°02'0 0.0
2018-Jun-11 03:00N 42°21' W 071°02'0 0.0
2018-Jun-11 02:31N 42°21' W 071°02'0 0.0
2018-Jun-11 02:00N 42°21' W 071°02'0 0.0
2018-Jun-11 01:30N 42°21' W 071°02'0 0.0
2018-Jun-11 01:01N 42°21' W 071°02'0 0.0
2018-Jun-11 00:31N 42°21' W 071°02'0 0.0
2018-Jun-11 00:00N 42°21' W 071°02'0 0.0
2018-Jun-10 23:31N 42°21' W 071°02'0 0.0
2018-Jun-10 23:01N 42°21' W 071°02'0 0.0
2018-Jun-10 22:30N 42°21' W 071°02'0 0.0
2018-Jun-10 22:01N 42°21' W 071°02'0 0.0
2018-Jun-10 21:30N 42°21' W 071°02'0 0.0
2018-Jun-10 21:01N 42°21' W 071°02'0 0.0
2018-Jun-10 20:30N 42°21' W 071°02'0 0.0
2018-Jun-10 20:01N 42°21' W 071°02'0 0.0
2018-Jun-10 19:30N 42°21' W 071°02'0 0.0
2018-Jun-10 19:00N 42°21' W 071°02'0 0.0
2018-Jun-10 18:31N 42°21' W 071°02'0 0.0
2018-Jun-10 18:01N 42°21' W 071°02'0 0.0
2018-Jun-10 17:30N 42°21' W 071°02'0 0.0
2018-Jun-10 17:01N 42°21' W 071°02'0 0.0
2018-Jun-10 16:30N 42°21' W 071°02'0 0.1
2018-Jun-10 16:00N 42°21' W 071°02'0 0.0
2018-Jun-10 15:30N 42°21' W 071°02'0 0.0
2018-Jun-10 15:00N 42°21' W 071°02'0 0.0
2018-Jun-10 14:30N 42°21' W 071°02'3 2.8
2018-Jun-10 13:30N 42°20' W 070°59'4 8.0
2018-Jun-10 13:00N 42°19' W 070°54'4 8.4
2018-Jun-10 12:30N 42°18' W 070°48'4 7.7
2018-Jun-10 12:00N 42°16' W 070°44'4 7.8
2018-Jun-10 11:30N 42°12' W 070°41'4 7.8
2018-Jun-10 11:01N 42°09' W 070°38'4 7.7
2018-Jun-10 10:30N 42°06' W 070°36'4 7.4
2018-Jun-10 10:01N 42°02' W 070°34'  
Track history (hours):
 
Tides and Currents Weather Stations Pressure Air Temp Water Temp Dewpoint Dewpoint Depression Visibility Wind Speed Wind Dir Waves Ship Positions

F/V Jocka

Owner: F/V Jocka, Harpswell, ME. More information available from US FCC via Universal Licensing System and Coast Guard Vessel Documentation Center.

Last reported at 2018-Jun-18 20:27 UTC. Time now 2018-Jun-20 04:01 UTC.
Position N 40°30' W 073°29'.

Length 19 m.

Type: Ship. MMSI: 367551860.

Date/timePositionNaut miles runAvg speedWind from/ knotsBaromVisibWave heightAir tempDewpointWater temp
2018-Jun-18 20:27N 40°30' W 073°29'5 0.6
2018-Jun-18 12:11N 40°32' W 073°34'0 1.0
2018-Jun-18 11:54N 40°32' W 073°35'1 1.8
2018-Jun-18 11:29N 40°31' W 073°35'0 0.3
2018-Jun-18 11:00N 40°31' W 073°35'4 2.8
2018-Jun-18 09:33N 40°30' W 073°30'0 3.2
2018-Jun-18 09:28N 40°30' W 073°30'2 3.1
2018-Jun-18 08:47N 40°31' W 073°27'1 2.1
2018-Jun-18 08:27N 40°31' W 073°26'8 0.2
2018-Jun-16 09:04N 40°31' W 073°36'168 4.5
2018-Jun-14 19:50N 42°15' W 070°41'3 7.7
2018-Jun-14 19:31N 42°17' W 070°43'4 8.3
2018-Jun-14 19:00N 42°18' W 070°49'4 8.4
2018-Jun-14 18:31N 42°19' W 070°54'4 8.0
2018-Jun-14 18:00N 42°20' W 070°60'2 4.6
2018-Jun-14 17:30N 42°21' W 071°02'0 0.0
2018-Jun-14 17:00N 42°21' W 071°02'0 0.0
2018-Jun-14 16:31N 42°21' W 071°02'0 0.0
2018-Jun-14 16:00N 42°21' W 071°02'0 0.0
2018-Jun-14 15:30N 42°21' W 071°02'0 0.0
2018-Jun-14 15:00N 42°21' W 071°02'0 0.1
2018-Jun-14 14:30N 42°21' W 071°02'0 0.0
2018-Jun-14 14:01N 42°21' W 071°02'0 0.0
2018-Jun-14 13:30N 42°21' W 071°02'0 0.0
2018-Jun-14 13:01N 42°21' W 071°02'0 0.0
2018-Jun-14 12:30N 42°21' W 071°02'0 0.0
2018-Jun-14 12:00N 42°21' W 071°02'0 0.0
2018-Jun-14 11:30N 42°21' W 071°02'0 0.0
2018-Jun-14 11:01N 42°21' W 071°02'0 0.0
2018-Jun-14 10:30N 42°21' W 071°02'0 0.0
2018-Jun-14 10:01N 42°21' W 071°02'0 0.0
2018-Jun-14 09:30N 42°21' W 071°02'0 0.0
2018-Jun-14 09:00N 42°21' W 071°02'0 0.0
2018-Jun-14 08:30N 42°21' W 071°02'0 0.0
2018-Jun-14 08:00N 42°21' W 071°02'0 0.0
2018-Jun-14 07:30N 42°21' W 071°02'0 0.0
2018-Jun-14 07:00N 42°21' W 071°02'0 0.0
2018-Jun-14 06:31N 42°21' W 071°02'0 0.0
2018-Jun-14 06:00N 42°21' W 071°02'0 0.0
2018-Jun-14 05:31N 42°21' W 071°02'0 0.0
2018-Jun-14 05:01N 42°21' W 071°02'0 0.0
2018-Jun-14 04:30N 42°21' W 071°02'0 0.0
2018-Jun-14 04:00N 42°21' W 071°02'0 0.0
2018-Jun-14 03:30N 42°21' W 071°02'0 0.0
2018-Jun-14 03:01N 42°21' W 071°02'0 0.0
2018-Jun-14 02:30N 42°21' W 071°02'0 0.0
2018-Jun-14 02:01N 42°21' W 071°02'0 0.0
2018-Jun-14 01:30N 42°21' W 071°02'0 0.0
2018-Jun-14 01:01N 42°21' W 071°02'0 0.0
2018-Jun-14 00:30N 42°21' W 071°02'0 0.0
2018-Jun-14 00:01N 42°21' W 071°02'0 0.0
2018-Jun-13 23:30N 42°21' W 071°02'0 0.0
2018-Jun-13 23:00N 42°21' W 071°02'0 0.0
2018-Jun-13 22:31N 42°21' W 071°02'0 0.0
2018-Jun-13 22:00N 42°21' W 071°02'0 0.0
2018-Jun-13 21:31N 42°21' W 071°02'0 0.0
2018-Jun-13 21:01N 42°21' W 071°02'0 0.0
2018-Jun-13 20:31N 42°21' W 071°02'0 0.0
2018-Jun-13 20:00N 42°21' W 071°02'0 0.0
2018-Jun-13 19:30N 42°21' W 071°02'0 0.0
2018-Jun-13 19:00N 42°21' W 071°02'0 0.0
2018-Jun-13 18:30N 42°21' W 071°02'0 0.0
2018-Jun-13 18:00N 42°21' W 071°02'0 0.0
2018-Jun-13 17:31N 42°21' W 071°02'0 0.0
2018-Jun-13 17:01N 42°21' W 071°02'0 0.0
2018-Jun-13 16:30N 42°21' W 071°02'0 0.0
2018-Jun-13 16:01N 42°21' W 071°02'0 0.0
2018-Jun-13 15:30N 42°21' W 071°02'0 0.0
2018-Jun-13 15:00N 42°21' W 071°02'0 0.0
2018-Jun-13 14:30N 42°21' W 071°02'0 0.0
2018-Jun-13 14:00N 42°21' W 071°02'0 0.0
2018-Jun-13 13:30N 42°21' W 071°02'0 0.0
2018-Jun-13 13:01N 42°21' W 071°02'0 0.0
2018-Jun-13 12:30N 42°21' W 071°02'0 0.0
2018-Jun-13 12:00N 42°21' W 071°02'0 0.0
2018-Jun-13 11:31N 42°21' W 071°02'0 0.0
2018-Jun-13 11:00N 42°21' W 071°02'0 0.0
2018-Jun-13 10:30N 42°21' W 071°02'0 0.0
2018-Jun-13 10:00N 42°21' W 071°02'0 0.0
2018-Jun-13 09:31N 42°21' W 071°02'0 0.0
2018-Jun-13 09:00N 42°21' W 071°02'0 0.0
2018-Jun-13 08:30N 42°21' W 071°02'0 0.0
2018-Jun-13 08:00N 42°21' W 071°02'0 0.0
2018-Jun-13 07:31N 42°21' W 071°02'0 0.0
2018-Jun-13 07:00N 42°21' W 071°02'0 0.0
2018-Jun-13 06:30N 42°21' W 071°02'0 0.0
2018-Jun-13 06:00N 42°21' W 071°02'0 0.0
2018-Jun-13 05:31N 42°21' W 071°02'0 0.0
2018-Jun-13 05:01N 42°21' W 071°02'0 0.0
2018-Jun-13 04:30N 42°21' W 071°02'0 0.0
2018-Jun-13 04:01N 42°21' W 071°02'0 0.0
2018-Jun-13 03:31N 42°21' W 071°02'0 0.0
2018-Jun-13 03:00N 42°21' W 071°02'0 0.0
2018-Jun-13 02:30N 42°21' W 071°02'0 0.0
2018-Jun-13 02:00N 42°21' W 071°02'0 0.0
2018-Jun-13 01:31N 42°21' W 071°02'0 0.0
2018-Jun-13 01:00N 42°21' W 071°02'0 0.0
2018-Jun-13 00:30N 42°21' W 071°02'0 0.0
2018-Jun-13 00:00N 42°21' W 071°02'0 0.0
2018-Jun-12 23:30N 42°21' W 071°02'0 0.0
2018-Jun-12 23:01N 42°21' W 071°02'0 0.0
2018-Jun-12 22:30N 42°21' W 071°02'0 0.0
2018-Jun-12 22:01N 42°21' W 071°02'0 0.0
2018-Jun-12 21:30N 42°21' W 071°02'0 0.0
2018-Jun-12 21:00N 42°21' W 071°02'0 0.0
2018-Jun-12 20:30N 42°21' W 071°02'0 0.0
2018-Jun-12 20:00N 42°21' W 071°02'0 0.0
2018-Jun-12 19:31N 42°21' W 071°02'0 0.0
2018-Jun-12 19:00N 42°21' W 071°02'0 0.0
2018-Jun-12 18:30N 42°21' W 071°02'0 0.0
2018-Jun-12 18:00N 42°21' W 071°02'0 0.0
2018-Jun-12 17:30N 42°21' W 071°02'0 0.0
2018-Jun-12 17:01N 42°21' W 071°02'0 0.0
2018-Jun-12 16:30N 42°21' W 071°02'0 0.0
2018-Jun-12 16:00N 42°21' W 071°02'0 0.0
2018-Jun-12 15:30N 42°21' W 071°02'0 0.0
2018-Jun-12 15:01N 42°21' W 071°02'0 0.0
2018-Jun-12 14:31N 42°21' W 071°02'0 0.0
2018-Jun-12 14:00N 42°21' W 071°02'0 0.0
2018-Jun-12 13:30N 42°21' W 071°02'0 0.0
2018-Jun-12 13:00N 42°21' W 071°02'0 0.0
2018-Jun-12 12:31N 42°21' W 071°02'0 0.0
2018-Jun-12 12:01N 42°21' W 071°02'0 0.0
2018-Jun-12 11:31N 42°21' W 071°02'0 0.0
2018-Jun-12 11:00N 42°21' W 071°02'0 0.0
2018-Jun-12 10:30N 42°21' W 071°02'0 0.0
2018-Jun-12 10:01N 42°21' W 071°02'0 0.0
2018-Jun-12 09:31N 42°21' W 071°02'0 0.0
2018-Jun-12 09:01N 42°21' W 071°02'0 0.0
2018-Jun-12 08:31N 42°21' W 071°02'0 0.0
2018-Jun-12 08:00N 42°21' W 071°02'0 0.0
2018-Jun-12 07:30N 42°21' W 071°02'0 0.0
2018-Jun-12 07:00N 42°21' W 071°02'0 0.0
2018-Jun-12 06:30N 42°21' W 071°02'0 0.0
2018-Jun-12 06:00N 42°21' W 071°02'0 0.0
2018-Jun-12 05:30N 42°21' W 071°02'0 0.0
2018-Jun-12 05:00N 42°21' W 071°02'0 0.0
2018-Jun-12 04:30N 42°21' W 071°02'0 0.0
2018-Jun-12 04:00N 42°21' W 071°02'0 0.0
2018-Jun-12 03:30N 42°21' W 071°02'0 0.0
2018-Jun-12 03:01N 42°21' W 071°02'0 0.0
2018-Jun-12 02:30N 42°21' W 071°02'0 0.0
2018-Jun-12 02:01N 42°21' W 071°02'0 0.0
2018-Jun-12 01:30N 42°21' W 071°02'0 0.0
2018-Jun-12 01:01N 42°21' W 071°02'0 0.0
2018-Jun-12 00:31N 42°21' W 071°02'0 0.0
2018-Jun-12 00:01N 42°21' W 071°02'0 0.0
2018-Jun-11 23:31N 42°21' W 071°02'0 0.0
2018-Jun-11 23:00N 42°21' W 071°02'0 0.0
2018-Jun-11 22:31N 42°21' W 071°02'0 0.0
2018-Jun-11 22:00N 42°21' W 071°02'0 0.0
2018-Jun-11 21:30N 42°21' W 071°02'0 0.0
2018-Jun-11 21:00N 42°21' W 071°02'0 0.0
2018-Jun-11 20:30N 42°21' W 071°02'0 0.0
2018-Jun-11 20:00N 42°21' W 071°02'0 0.0
2018-Jun-11 19:30N 42°21' W 071°02'0 0.0
2018-Jun-11 19:01N 42°21' W 071°02'0 0.0
2018-Jun-11 18:31N 42°21' W 071°02'0 0.0
2018-Jun-11 18:01N 42°21' W 071°02'0 0.0
2018-Jun-11 17:30N 42°21' W 071°02'0 0.0
2018-Jun-11 17:01N 42°21' W 071°02'0 0.0
2018-Jun-11 16:30N 42°21' W 071°02'0 0.0
2018-Jun-11 16:00N 42°21' W 071°02'0 0.0
2018-Jun-11 15:30N 42°21' W 071°02'0 0.0
2018-Jun-11 15:00N 42°21' W 071°02'0 0.0
2018-Jun-11 14:30N 42°21' W 071°02'0 0.0
2018-Jun-11 14:00N 42°21' W 071°02'0 0.0
2018-Jun-11 13:30N 42°21' W 071°02'0 0.0
2018-Jun-11 13:01N 42°21' W 071°02'0 0.0
2018-Jun-11 12:30N 42°21' W 071°02'0 0.0
2018-Jun-11 12:00N 42°21' W 071°02'0 0.0
2018-Jun-11 11:30N 42°21' W 071°02'0 0.0
2018-Jun-11 11:00N 42°21' W 071°02'0 0.0
2018-Jun-11 10:30N 42°21' W 071°02'0 0.0
2018-Jun-11 10:00N 42°21' W 071°02'0 0.0
2018-Jun-11 09:30N 42°21' W 071°02'0 0.0
2018-Jun-11 09:00N 42°21' W 071°02'0 0.0
2018-Jun-11 08:31N 42°21' W 071°02'0 0.0
2018-Jun-11 08:01N 42°21' W 071°02'0 0.0
2018-Jun-11 07:31N 42°21' W 071°02'0 0.0
2018-Jun-11 07:01N 42°21' W 071°02'0 0.0
2018-Jun-11 06:31N 42°21' W 071°02'0 0.0
2018-Jun-11 06:01N 42°21' W 071°02'0 0.0
2018-Jun-11 05:31N 42°21' W 071°02'0 0.0
2018-Jun-11 05:01N 42°21' W 071°02'0 0.0
2018-Jun-11 04:31N 42°21' W 071°02'0 0.0
2018-Jun-11 04:01N 42°21' W 071°02'0 0.0
2018-Jun-11 03:30N 42°21' W 071°02'0 0.0
2018-Jun-11 03:00N 42°21' W 071°02'0 0.0
2018-Jun-11 02:31N 42°21' W 071°02'0 0.0
2018-Jun-11 02:00N 42°21' W 071°02'0 0.0
2018-Jun-11 01:30N 42°21' W 071°02'0 0.0
2018-Jun-11 01:01N 42°21' W 071°02'0 0.0
2018-Jun-11 00:31N 42°21' W 071°02'0 0.0
2018-Jun-11 00:00N 42°21' W 071°02'0 0.0
2018-Jun-10 23:31N 42°21' W 071°02'0 0.0
2018-Jun-10 23:01N 42°21' W 071°02'0 0.0
2018-Jun-10 22:30N 42°21' W 071°02'0 0.0
2018-Jun-10 22:01N 42°21' W 071°02'0 0.0
2018-Jun-10 21:30N 42°21' W 071°02'0 0.0
2018-Jun-10 21:01N 42°21' W 071°02'0 0.0
2018-Jun-10 20:30N 42°21' W 071°02'0 0.0
2018-Jun-10 20:01N 42°21' W 071°02'0 0.0
2018-Jun-10 19:30N 42°21' W 071°02'0 0.0
2018-Jun-10 19:00N 42°21' W 071°02'0 0.0
2018-Jun-10 18:31N 42°21' W 071°02'0 0.0
2018-Jun-10 18:01N 42°21' W 071°02'0 0.0
2018-Jun-10 17:30N 42°21' W 071°02'0 0.0
2018-Jun-10 17:01N 42°21' W 071°02'0 0.0
2018-Jun-10 16:30N 42°21' W 071°02'0 0.1
2018-Jun-10 16:00N 42°21' W 071°02'0 0.0
2018-Jun-10 15:30N 42°21' W 071°02'0 0.0
2018-Jun-10 15:00N 42°21' W 071°02'0 0.0
2018-Jun-10 14:30N 42°21' W 071°02'3 2.8
2018-Jun-10 13:30N 42°20' W 070°59'4 8.0
2018-Jun-10 13:00N 42°19' W 070°54'4 8.4
2018-Jun-10 12:30N 42°18' W 070°48'4 7.7
2018-Jun-10 12:00N 42°16' W 070°44'4 7.8
2018-Jun-10 11:30N 42°12' W 070°41'4 7.8
2018-Jun-10 11:01N 42°09' W 070°38'4 7.7
2018-Jun-10 10:30N 42°06' W 070°36'4 7.4
2018-Jun-10 10:01N 42°02' W 070°34'  

Dump ship's entire track history